sensor_id;sensor_type;location;lat;lon;timestamp;P1;durP1;ratioP1;P2;durP2;ratioP2
61091;SDS011;46975;51.898;11.444;2022-12-17T00:02:12;33.65;;;17.10;;
61091;SDS011;46975;51.898;11.444;2022-12-17T00:04:56;30.50;;;17.08;;
61091;SDS011;46975;51.898;11.444;2022-12-17T00:07:40;31.60;;;16.02;;
61091;SDS011;46975;51.898;11.444;2022-12-17T00:10:24;34.70;;;18.00;;
61091;SDS011;46975;51.898;11.444;2022-12-17T00:13:21;27.92;;;16.45;;
61091;SDS011;46975;51.898;11.444;2022-12-17T00:16:05;29.35;;;14.35;;
61091;SDS011;46975;51.898;11.444;2022-12-17T00:18:57;30.92;;;17.60;;
61091;SDS011;46975;51.898;11.444;2022-12-17T00:21:41;36.85;;;18.45;;
61091;SDS011;46975;51.898;11.444;2022-12-17T00:24:25;29.67;;;16.60;;
61091;SDS011;46975;51.898;11.444;2022-12-17T00:27:09;31.35;;;17.08;;
61091;SDS011;46975;51.898;11.444;2022-12-17T00:29:53;32.28;;;17.33;;
61091;SDS011;46975;51.898;11.444;2022-12-17T00:32:37;37.45;;;17.65;;
61091;SDS011;46975;51.898;11.444;2022-12-17T00:35:21;34.63;;;15.90;;
61091;SDS011;46975;51.898;11.444;2022-12-17T00:38:05;33.53;;;15.88;;
61091;SDS011;46975;51.898;11.444;2022-12-17T00:40:50;30.27;;;16.10;;
61091;SDS011;46975;51.898;11.444;2022-12-17T00:43:35;33.42;;;17.02;;
61091;SDS011;46975;51.898;11.444;2022-12-17T00:46:19;35.33;;;17.15;;
61091;SDS011;46975;51.898;11.444;2022-12-17T00:49:03;30.80;;;16.63;;
61091;SDS011;46975;51.898;11.444;2022-12-17T00:51:47;30.00;;;16.52;;
61091;SDS011;46975;51.898;11.444;2022-12-17T00:54:31;38.17;;;16.63;;
61091;SDS011;46975;51.898;11.444;2022-12-17T00:57:15;34.60;;;17.83;;
61091;SDS011;46975;51.898;11.444;2022-12-17T00:59:59;30.13;;;16.75;;
61091;SDS011;46975;51.898;11.444;2022-12-17T01:02:43;29.40;;;16.67;;
61091;SDS011;46975;51.898;11.444;2022-12-17T01:05:27;32.05;;;16.45;;
61091;SDS011;46975;51.898;11.444;2022-12-17T01:08:12;30.42;;;16.27;;
61091;SDS011;46975;51.898;11.444;2022-12-17T01:10:58;30.95;;;17.25;;
61091;SDS011;46975;51.898;11.444;2022-12-17T01:13:43;36.00;;;17.40;;
61091;SDS011;46975;51.898;11.444;2022-12-17T01:16:28;27.25;;;14.45;;
61091;SDS011;46975;51.898;11.444;2022-12-17T01:19:13;28.42;;;15.68;;
61091;SDS011;46975;51.898;11.444;2022-12-17T01:21:57;31.92;;;15.38;;
61091;SDS011;46975;51.898;11.444;2022-12-17T01:24:41;36.08;;;17.23;;
61091;SDS011;46975;51.898;11.444;2022-12-17T01:27:25;31.50;;;16.15;;
61091;SDS011;46975;51.898;11.444;2022-12-17T01:30:09;29.08;;;15.05;;
61091;SDS011;46975;51.898;11.444;2022-12-17T01:32:59;28.48;;;16.63;;
61091;SDS011;46975;51.898;11.444;2022-12-17T01:35:47;35.40;;;16.92;;
61091;SDS011;46975;51.898;11.444;2022-12-17T01:38:31;33.00;;;16.77;;
61091;SDS011;46975;51.898;11.444;2022-12-17T01:41:18;29.50;;;16.02;;
61091;SDS011;46975;51.898;11.444;2022-12-17T01:47:35;33.78;;;17.02;;
61091;SDS011;46975;51.898;11.444;2022-12-17T01:50:23;33.35;;;18.05;;
61091;SDS011;46975;51.898;11.444;2022-12-17T01:53:10;38.90;;;18.00;;
61091;SDS011;46975;51.898;11.444;2022-12-17T01:55:54;36.55;;;17.48;;
61091;SDS011;46975;51.898;11.444;2022-12-17T01:58:39;32.88;;;17.92;;
61091;SDS011;46975;51.898;11.444;2022-12-17T02:01:24;34.83;;;18.17;;
61091;SDS011;46975;51.898;11.444;2022-12-17T02:04:09;34.20;;;18.08;;
61091;SDS011;46975;51.898;11.444;2022-12-17T02:06:58;34.67;;;17.20;;
61091;SDS011;46975;51.898;11.444;2022-12-17T02:13:07;38.22;;;19.05;;
61091;SDS011;46975;51.898;11.444;2022-12-17T02:16:00;35.92;;;18.83;;
61091;SDS011;46975;51.898;11.444;2022-12-17T02:18:54;34.88;;;17.67;;
61091;SDS011;46975;51.898;11.444;2022-12-17T02:21:42;35.15;;;19.10;;
61091;SDS011;46975;51.898;11.444;2022-12-17T02:27:20;32.67;;;17.48;;
61091;SDS011;46975;51.898;11.444;2022-12-17T02:30:06;39.75;;;21.05;;
61091;SDS011;46975;51.898;11.444;2022-12-17T02:32:51;35.47;;;18.63;;
61091;SDS011;46975;51.898;11.444;2022-12-17T02:35:41;34.30;;;19.00;;
61091;SDS011;46975;51.898;11.444;2022-12-17T02:38:29;37.33;;;18.73;;
61091;SDS011;46975;51.898;11.444;2022-12-17T02:41:20;34.97;;;18.88;;
61091;SDS011;46975;51.898;11.444;2022-12-17T02:44:10;36.75;;;18.45;;
61091;SDS011;46975;51.898;11.444;2022-12-17T02:46:55;32.92;;;17.60;;
61091;SDS011;46975;51.898;11.444;2022-12-17T02:49:41;38.03;;;18.98;;
61091;SDS011;46975;51.898;11.444;2022-12-17T02:52:25;34.78;;;19.05;;
61091;SDS011;46975;51.898;11.444;2022-12-17T02:55:11;31.60;;;17.67;;
61091;SDS011;46975;51.898;11.444;2022-12-17T02:57:55;34.75;;;19.65;;
61091;SDS011;46975;51.898;11.444;2022-12-17T03:00:39;37.65;;;20.30;;
61091;SDS011;46975;51.898;11.444;2022-12-17T03:03:23;34.38;;;17.13;;
61091;SDS011;46975;51.898;11.444;2022-12-17T03:06:07;33.80;;;17.98;;
61091;SDS011;46975;51.898;11.444;2022-12-17T03:08:51;35.88;;;18.95;;
61091;SDS011;46975;51.898;11.444;2022-12-17T03:11:35;36.63;;;19.55;;
61091;SDS011;46975;51.898;11.444;2022-12-17T03:14:19;35.67;;;18.13;;
61091;SDS011;46975;51.898;11.444;2022-12-17T03:17:03;43.13;;;20.08;;
61091;SDS011;46975;51.898;11.444;2022-12-17T03:19:48;32.60;;;17.85;;
61091;SDS011;46975;51.898;11.444;2022-12-17T03:22:32;40.58;;;18.55;;
61091;SDS011;46975;51.898;11.444;2022-12-17T03:25:16;37.10;;;17.75;;
61091;SDS011;46975;51.898;11.444;2022-12-17T03:28:08;29.20;;;16.95;;
61091;SDS011;46975;51.898;11.444;2022-12-17T03:30:56;41.08;;;20.42;;
61091;SDS011;46975;51.898;11.444;2022-12-17T03:33:42;37.40;;;19.17;;
61091;SDS011;46975;51.898;11.444;2022-12-17T03:36:27;34.30;;;17.38;;
61091;SDS011;46975;51.898;11.444;2022-12-17T03:39:11;37.63;;;19.00;;
61091;SDS011;46975;51.898;11.444;2022-12-17T03:41:55;34.05;;;17.83;;
61091;SDS011;46975;51.898;11.444;2022-12-17T03:44:39;32.97;;;17.20;;
61091;SDS011;46975;51.898;11.444;2022-12-17T03:47:23;31.10;;;16.45;;
61091;SDS011;46975;51.898;11.444;2022-12-17T03:50:07;33.40;;;16.33;;
61091;SDS011;46975;51.898;11.444;2022-12-17T03:52:51;38.97;;;17.77;;
61091;SDS011;46975;51.898;11.444;2022-12-17T03:55:35;33.08;;;17.88;;
61091;SDS011;46975;51.898;11.444;2022-12-17T03:58:19;32.95;;;17.05;;
61091;SDS011;46975;51.898;11.444;2022-12-17T04:01:03;33.13;;;17.23;;
61091;SDS011;46975;51.898;11.444;2022-12-17T04:03:47;30.73;;;17.55;;
61091;SDS011;46975;51.898;11.444;2022-12-17T04:06:31;34.72;;;17.23;;
61091;SDS011;46975;51.898;11.444;2022-12-17T04:09:16;31.70;;;17.38;;
61091;SDS011;46975;51.898;11.444;2022-12-17T04:12:00;42.33;;;18.55;;
61091;SDS011;46975;51.898;11.444;2022-12-17T04:14:44;36.90;;;17.33;;
61091;SDS011;46975;51.898;11.444;2022-12-17T04:17:28;37.97;;;19.23;;
61091;SDS011;46975;51.898;11.444;2022-12-17T04:20:12;46.58;;;23.15;;
61091;SDS011;46975;51.898;11.444;2022-12-17T04:22:56;45.20;;;21.92;;
61091;SDS011;46975;51.898;11.444;2022-12-17T04:25:41;38.03;;;19.52;;
61091;SDS011;46975;51.898;11.444;2022-12-17T04:28:25;47.38;;;21.10;;
61091;SDS011;46975;51.898;11.444;2022-12-17T04:31:09;43.60;;;21.75;;
61091;SDS011;46975;51.898;11.444;2022-12-17T04:33:53;42.97;;;21.40;;
61091;SDS011;46975;51.898;11.444;2022-12-17T04:36:37;37.60;;;18.58;;
61091;SDS011;46975;51.898;11.444;2022-12-17T04:39:22;36.58;;;18.15;;
61091;SDS011;46975;51.898;11.444;2022-12-17T04:42:05;46.25;;;20.55;;
61091;SDS011;46975;51.898;11.444;2022-12-17T04:44:50;36.67;;;18.60;;
61091;SDS011;46975;51.898;11.444;2022-12-17T04:47:34;40.47;;;19.65;;
61091;SDS011;46975;51.898;11.444;2022-12-17T04:50:18;39.75;;;20.25;;
61091;SDS011;46975;51.898;11.444;2022-12-17T04:53:02;41.45;;;18.95;;
61091;SDS011;46975;51.898;11.444;2022-12-17T04:55:48;44.70;;;20.80;;
61091;SDS011;46975;51.898;11.444;2022-12-17T04:58:33;42.20;;;19.92;;
61091;SDS011;46975;51.898;11.444;2022-12-17T05:01:17;39.33;;;21.00;;
61091;SDS011;46975;51.898;11.444;2022-12-17T05:04:02;42.15;;;20.75;;
61091;SDS011;46975;51.898;11.444;2022-12-17T05:06:46;48.20;;;21.42;;
61091;SDS011;46975;51.898;11.444;2022-12-17T05:09:30;47.17;;;20.95;;
61091;SDS011;46975;51.898;11.444;2022-12-17T05:12:14;47.47;;;23.63;;
61091;SDS011;46975;51.898;11.444;2022-12-17T05:14:58;46.63;;;21.40;;
61091;SDS011;46975;51.898;11.444;2022-12-17T05:18:03;45.05;;;21.52;;
61091;SDS011;46975;51.898;11.444;2022-12-17T05:20:49;55.45;;;25.10;;
61091;SDS011;46975;51.898;11.444;2022-12-17T05:23:33;52.75;;;22.73;;
61091;SDS011;46975;51.898;11.444;2022-12-17T05:26:24;58.38;;;24.98;;
61091;SDS011;46975;51.898;11.444;2022-12-17T05:29:10;46.67;;;24.63;;
61091;SDS011;46975;51.898;11.444;2022-12-17T05:31:54;63.63;;;28.83;;
61091;SDS011;46975;51.898;11.444;2022-12-17T05:34:38;50.42;;;26.08;;
61091;SDS011;46975;51.898;11.444;2022-12-17T05:37:22;50.88;;;24.75;;
61091;SDS011;46975;51.898;11.444;2022-12-17T05:40:07;47.10;;;22.92;;
61091;SDS011;46975;51.898;11.444;2022-12-17T05:43:03;51.78;;;23.40;;
61091;SDS011;46975;51.898;11.444;2022-12-17T05:45:48;42.22;;;21.15;;
61091;SDS011;46975;51.898;11.444;2022-12-17T05:48:33;44.05;;;19.10;;
61091;SDS011;46975;51.898;11.444;2022-12-17T05:51:18;36.25;;;16.45;;
61091;SDS011;46975;51.898;11.444;2022-12-17T05:54:02;37.90;;;18.45;;
61091;SDS011;46975;51.898;11.444;2022-12-17T05:56:46;56.80;;;19.33;;
61091;SDS011;46975;51.898;11.444;2022-12-17T05:59:31;65.60;;;22.25;;
61091;SDS011;46975;51.898;11.444;2022-12-17T06:02:15;62.95;;;19.17;;
61091;SDS011;46975;51.898;11.444;2022-12-17T06:04:59;50.40;;;20.58;;
61091;SDS011;46975;51.898;11.444;2022-12-17T06:07:43;55.17;;;18.65;;
61091;SDS011;46975;51.898;11.444;2022-12-17T06:10:27;95.32;;;22.35;;
61091;SDS011;46975;51.898;11.444;2022-12-17T06:13:11;102.03;;;25.65;;
61091;SDS011;46975;51.898;11.444;2022-12-17T06:15:55;95.30;;;24.48;;
61091;SDS011;46975;51.898;11.444;2022-12-17T06:18:39;61.58;;;23.92;;
61091;SDS011;46975;51.898;11.444;2022-12-17T06:21:30;59.75;;;22.50;;
61091;SDS011;46975;51.898;11.444;2022-12-17T06:24:15;104.55;;;25.58;;
61091;SDS011;46975;51.898;11.444;2022-12-17T06:26:59;69.72;;;24.50;;
61091;SDS011;46975;51.898;11.444;2022-12-17T06:29:43;70.97;;;23.25;;
61091;SDS011;46975;51.898;11.444;2022-12-17T06:32:27;58.53;;;23.85;;
61091;SDS011;46975;51.898;11.444;2022-12-17T06:35:11;58.65;;;24.35;;
61091;SDS011;46975;51.898;11.444;2022-12-17T06:38:03;67.22;;;24.48;;
61091;SDS011;46975;51.898;11.444;2022-12-17T06:40:49;60.20;;;25.95;;
61091;SDS011;46975;51.898;11.444;2022-12-17T06:43:34;55.67;;;24.92;;
61091;SDS011;46975;51.898;11.444;2022-12-17T06:46:18;66.25;;;26.27;;
61091;SDS011;46975;51.898;11.444;2022-12-17T06:49:02;58.15;;;24.88;;
61091;SDS011;46975;51.898;11.444;2022-12-17T06:51:46;65.65;;;24.27;;
61091;SDS011;46975;51.898;11.444;2022-12-17T06:54:30;64.47;;;25.83;;
61091;SDS011;46975;51.898;11.444;2022-12-17T06:57:15;92.55;;;27.42;;
61091;SDS011;46975;51.898;11.444;2022-12-17T06:59:59;85.95;;;27.20;;
61091;SDS011;46975;51.898;11.444;2022-12-17T07:02:43;115.97;;;27.88;;
61091;SDS011;46975;51.898;11.444;2022-12-17T07:05:27;106.30;;;28.15;;
61091;SDS011;46975;51.898;11.444;2022-12-17T07:08:11;93.20;;;26.80;;
61091;SDS011;46975;51.898;11.444;2022-12-17T07:10:59;111.22;;;29.48;;
61091;SDS011;46975;51.898;11.444;2022-12-17T07:13:44;84.75;;;24.38;;
61091;SDS011;46975;51.898;11.444;2022-12-17T07:16:28;139.02;;;29.95;;
61091;SDS011;46975;51.898;11.444;2022-12-17T07:19:13;102.68;;;27.85;;
61091;SDS011;46975;51.898;11.444;2022-12-17T07:21:57;100.80;;;26.58;;
61091;SDS011;46975;51.898;11.444;2022-12-17T07:24:41;116.78;;;28.42;;
61091;SDS011;46975;51.898;11.444;2022-12-17T07:27:25;133.75;;;30.38;;
61091;SDS011;46975;51.898;11.444;2022-12-17T07:30:10;118.28;;;28.00;;
61091;SDS011;46975;51.898;11.444;2022-12-17T07:33:00;104.93;;;27.55;;
61091;SDS011;46975;51.898;11.444;2022-12-17T07:35:47;125.72;;;28.77;;
61091;SDS011;46975;51.898;11.444;2022-12-17T07:38:31;101.97;;;28.60;;
61091;SDS011;46975;51.898;11.444;2022-12-17T07:41:16;101.78;;;25.63;;
61091;SDS011;46975;51.898;11.444;2022-12-17T07:44:00;82.93;;;25.13;;
61091;SDS011;46975;51.898;11.444;2022-12-17T07:46:44;149.38;;;27.25;;
61091;SDS011;46975;51.898;11.444;2022-12-17T07:49:28;76.03;;;23.02;;
61091;SDS011;46975;51.898;11.444;2022-12-17T07:52:12;116.93;;;24.60;;
61091;SDS011;46975;51.898;11.444;2022-12-17T07:54:56;116.30;;;25.80;;
61091;SDS011;46975;51.898;11.444;2022-12-17T07:57:40;110.15;;;24.85;;
61091;SDS011;46975;51.898;11.444;2022-12-17T08:00:24;100.43;;;25.70;;
61091;SDS011;46975;51.898;11.444;2022-12-17T08:03:09;67.38;;;23.88;;
61091;SDS011;46975;51.898;11.444;2022-12-17T08:05:55;114.18;;;25.48;;
61091;SDS011;46975;51.898;11.444;2022-12-17T08:08:40;79.60;;;24.00;;
61091;SDS011;46975;51.898;11.444;2022-12-17T08:11:24;114.07;;;25.27;;
61091;SDS011;46975;51.898;11.444;2022-12-17T08:14:08;84.25;;;22.35;;
61091;SDS011;46975;51.898;11.444;2022-12-17T08:16:52;84.38;;;24.85;;
61091;SDS011;46975;51.898;11.444;2022-12-17T08:19:36;61.33;;;21.05;;
61091;SDS011;46975;51.898;11.444;2022-12-17T08:22:21;89.80;;;23.63;;
61091;SDS011;46975;51.898;11.444;2022-12-17T08:25:05;96.40;;;24.75;;
61091;SDS011;46975;51.898;11.444;2022-12-17T08:27:54;104.28;;;28.23;;
61091;SDS011;46975;51.898;11.444;2022-12-17T08:30:42;112.65;;;29.80;;
61091;SDS011;46975;51.898;11.444;2022-12-17T08:33:29;102.85;;;27.52;;
61091;SDS011;46975;51.898;11.444;2022-12-17T08:36:13;84.93;;;26.70;;
61091;SDS011;46975;51.898;11.444;2022-12-17T08:38:57;70.50;;;23.88;;
61091;SDS011;46975;51.898;11.444;2022-12-17T08:41:41;73.53;;;25.33;;
61091;SDS011;46975;51.898;11.444;2022-12-17T08:44:25;73.13;;;24.35;;
61091;SDS011;46975;51.898;11.444;2022-12-17T08:47:09;91.53;;;28.13;;
61091;SDS011;46975;51.898;11.444;2022-12-17T08:49:53;71.72;;;23.70;;
61091;SDS011;46975;51.898;11.444;2022-12-17T08:52:37;53.20;;;22.85;;
61091;SDS011;46975;51.898;11.444;2022-12-17T08:55:22;73.43;;;23.95;;
61091;SDS011;46975;51.898;11.444;2022-12-17T08:58:06;75.97;;;23.48;;
61091;SDS011;46975;51.898;11.444;2022-12-17T09:00:51;72.38;;;24.58;;
61091;SDS011;46975;51.898;11.444;2022-12-17T09:03:35;70.15;;;23.88;;
61091;SDS011;46975;51.898;11.444;2022-12-17T09:06:19;73.57;;;22.27;;
61091;SDS011;46975;51.898;11.444;2022-12-17T09:09:03;85.38;;;22.90;;
61091;SDS011;46975;51.898;11.444;2022-12-17T09:11:47;84.97;;;22.10;;
61091;SDS011;46975;51.898;11.444;2022-12-17T09:14:32;60.55;;;21.90;;
61091;SDS011;46975;51.898;11.444;2022-12-17T09:17:16;63.83;;;22.10;;
61091;SDS011;46975;51.898;11.444;2022-12-17T09:20:00;95.03;;;25.92;;
61091;SDS011;46975;51.898;11.444;2022-12-17T09:22:44;68.32;;;23.55;;
61091;SDS011;46975;51.898;11.444;2022-12-17T09:25:28;62.72;;;20.50;;
61091;SDS011;46975;51.898;11.444;2022-12-17T09:28:12;71.85;;;24.42;;
61091;SDS011;46975;51.898;11.444;2022-12-17T09:30:59;62.92;;;23.33;;
61091;SDS011;46975;51.898;11.444;2022-12-17T09:33:45;84.00;;;25.13;;
61091;SDS011;46975;51.898;11.444;2022-12-17T09:36:29;58.63;;;20.73;;
61091;SDS011;46975;51.898;11.444;2022-12-17T09:39:13;80.50;;;22.10;;
61091;SDS011;46975;51.898;11.444;2022-12-17T09:45:13;61.20;;;21.23;;
61091;SDS011;46975;51.898;11.444;2022-12-17T09:51:11;67.05;;;23.20;;
61091;SDS011;46975;51.898;11.444;2022-12-17T09:54:11;78.53;;;24.65;;
61091;SDS011;46975;51.898;11.444;2022-12-17T09:57:09;75.43;;;23.23;;
61091;SDS011;46975;51.898;11.444;2022-12-17T09:59:58;88.65;;;25.00;;
61091;SDS011;46975;51.898;11.444;2022-12-17T10:02:46;49.20;;;21.58;;
61091;SDS011;46975;51.898;11.444;2022-12-17T10:05:30;99.97;;;24.88;;
61091;SDS011;46975;51.898;11.444;2022-12-17T10:08:16;60.92;;;22.38;;
61091;SDS011;46975;51.898;11.444;2022-12-17T10:11:36;81.75;;;25.98;;
61091;SDS011;46975;51.898;11.444;2022-12-17T10:14:15;85.18;;;33.17;;
61091;SDS011;46975;51.898;11.444;2022-12-17T10:17:10;80.22;;;24.95;;
61091;SDS011;46975;51.898;11.444;2022-12-17T10:23:09;67.75;;;22.75;;
61091;SDS011;46975;51.898;11.444;2022-12-17T10:26:04;61.65;;;24.75;;
61091;SDS011;46975;51.898;11.444;2022-12-17T10:28:49;55.53;;;23.15;;
61091;SDS011;46975;51.898;11.444;2022-12-17T10:31:33;61.10;;;23.92;;
61091;SDS011;46975;51.898;11.444;2022-12-17T10:34:18;67.22;;;24.65;;
61091;SDS011;46975;51.898;11.444;2022-12-17T10:37:03;54.42;;;22.10;;
61091;SDS011;46975;51.898;11.444;2022-12-17T10:39:58;53.67;;;20.58;;
61091;SDS011;46975;51.898;11.444;2022-12-17T10:42:43;57.38;;;22.48;;
61091;SDS011;46975;51.898;11.444;2022-12-17T10:45:36;62.50;;;22.63;;
61091;SDS011;46975;51.898;11.444;2022-12-17T10:48:24;61.67;;;21.33;;
61091;SDS011;46975;51.898;11.444;2022-12-17T10:51:57;42.38;;;19.58;;
61091;SDS011;46975;51.898;11.444;2022-12-17T11:00:26;68.80;;;23.38;;
61091;SDS011;46975;51.898;11.444;2022-12-17T11:03:28;65.55;;;22.02;;
61091;SDS011;46975;51.898;11.444;2022-12-17T11:06:14;86.20;;;25.25;;
61091;SDS011;46975;51.898;11.444;2022-12-17T11:09:30;69.22;;;22.83;;
61091;SDS011;46975;51.898;11.444;2022-12-17T11:12:12;51.28;;;23.38;;
61091;SDS011;46975;51.898;11.444;2022-12-17T11:14:59;73.90;;;23.55;;
61091;SDS011;46975;51.898;11.444;2022-12-17T11:21:56;51.67;;;21.88;;
61091;SDS011;46975;51.898;11.444;2022-12-17T11:24:20;84.57;;;22.05;;
61091;SDS011;46975;51.898;11.444;2022-12-17T11:27:13;68.03;;;23.30;;
61091;SDS011;46975;51.898;11.444;2022-12-17T11:30:00;55.20;;;21.65;;
61091;SDS011;46975;51.898;11.444;2022-12-17T11:32:53;58.05;;;23.48;;
61091;SDS011;46975;51.898;11.444;2022-12-17T11:35:59;58.75;;;24.17;;
61091;SDS011;46975;51.898;11.444;2022-12-17T11:38:59;51.58;;;22.48;;
61091;SDS011;46975;51.898;11.444;2022-12-17T11:41:55;59.38;;;23.65;;
61091;SDS011;46975;51.898;11.444;2022-12-17T11:44:51;49.60;;;23.70;;
61091;SDS011;46975;51.898;11.444;2022-12-17T11:48:01;57.90;;;23.48;;
61091;SDS011;46975;51.898;11.444;2022-12-17T11:54:26;56.10;;;21.75;;
61091;SDS011;46975;51.898;11.444;2022-12-17T11:57:22;59.65;;;24.58;;
61091;SDS011;46975;51.898;11.444;2022-12-17T12:00:17;66.53;;;24.13;;
61091;SDS011;46975;51.898;11.444;2022-12-17T12:09:27;70.82;;;24.00;;
61091;SDS011;46975;51.898;11.444;2022-12-17T12:18:49;52.92;;;24.35;;
61091;SDS011;46975;51.898;11.444;2022-12-17T12:21:59;51.50;;;21.65;;
61091;SDS011;46975;51.898;11.444;2022-12-17T12:34:17;60.30;;;21.55;;
61091;SDS011;46975;51.898;11.444;2022-12-17T12:37:05;50.88;;;24.42;;
61091;SDS011;46975;51.898;11.444;2022-12-17T12:42:53;51.47;;;21.83;;
61091;SDS011;46975;51.898;11.444;2022-12-17T12:45:57;46.05;;;22.20;;
61091;SDS011;46975;51.898;11.444;2022-12-17T12:48:59;50.22;;;23.70;;
61091;SDS011;46975;51.898;11.444;2022-12-17T12:52:02;55.97;;;23.92;;
61091;SDS011;46975;51.898;11.444;2022-12-17T12:54:51;49.28;;;22.58;;
61091;SDS011;46975;51.898;11.444;2022-12-17T12:57:54;64.25;;;24.75;;
61091;SDS011;46975;51.898;11.444;2022-12-17T13:03:33;47.17;;;20.70;;
61091;SDS011;46975;51.898;11.444;2022-12-17T13:11:39;38.88;;;17.50;;
61091;SDS011;46975;51.898;11.444;2022-12-17T13:14:20;48.72;;;20.38;;
61091;SDS011;46975;51.898;11.444;2022-12-17T13:17:01;58.08;;;20.77;;
61091;SDS011;46975;51.898;11.444;2022-12-17T13:24:52;42.22;;;19.45;;
61091;SDS011;46975;51.898;11.444;2022-12-17T13:27:35;37.58;;;19.58;;
61091;SDS011;46975;51.898;11.444;2022-12-17T13:30:17;38.15;;;18.52;;
61091;SDS011;46975;51.898;11.444;2022-12-17T13:32:59;40.38;;;21.23;;
61091;SDS011;46975;51.898;11.444;2022-12-17T13:41:17;39.75;;;19.45;;
61091;SDS011;46975;51.898;11.444;2022-12-17T13:43:48;43.38;;;23.27;;
61091;SDS011;46975;51.898;11.444;2022-12-17T13:46:21;45.05;;;22.45;;
61091;SDS011;46975;51.898;11.444;2022-12-17T13:48:54;40.47;;;22.08;;
61091;SDS011;46975;51.898;11.444;2022-12-17T13:51:29;44.10;;;22.00;;
61091;SDS011;46975;51.898;11.444;2022-12-17T13:54:00;46.67;;;21.30;;
61091;SDS011;46975;51.898;11.444;2022-12-17T13:56:29;44.03;;;20.60;;
61091;SDS011;46975;51.898;11.444;2022-12-17T13:58:59;41.28;;;20.60;;
61091;SDS011;46975;51.898;11.444;2022-12-17T14:01:27;38.58;;;20.50;;
61091;SDS011;46975;51.898;11.444;2022-12-17T14:03:54;43.67;;;19.85;;
61091;SDS011;46975;51.898;11.444;2022-12-17T14:06:22;33.65;;;18.42;;
61091;SDS011;46975;51.898;11.444;2022-12-17T14:08:51;35.08;;;19.70;;
61091;SDS011;46975;51.898;11.444;2022-12-17T14:11:18;44.63;;;17.08;;
61091;SDS011;46975;51.898;11.444;2022-12-17T14:14:07;37.38;;;18.63;;
61091;SDS011;46975;51.898;11.444;2022-12-17T14:16:40;40.08;;;19.30;;
61091;SDS011;46975;51.898;11.444;2022-12-17T14:19:07;35.50;;;18.35;;
61091;SDS011;46975;51.898;11.444;2022-12-17T14:21:34;37.95;;;19.85;;
61091;SDS011;46975;51.898;11.444;2022-12-17T14:24:01;39.05;;;19.30;;
61091;SDS011;46975;51.898;11.444;2022-12-17T14:26:28;45.17;;;20.23;;
61091;SDS011;46975;51.898;11.444;2022-12-17T14:28:53;41.65;;;22.10;;
61091;SDS011;46975;51.898;11.444;2022-12-17T14:31:25;45.43;;;19.00;;
61091;SDS011;46975;51.898;11.444;2022-12-17T14:34:05;48.33;;;20.55;;
61091;SDS011;46975;51.898;11.444;2022-12-17T14:36:35;49.72;;;21.58;;
61091;SDS011;46975;51.898;11.444;2022-12-17T14:39:04;48.28;;;21.42;;
61091;SDS011;46975;51.898;11.444;2022-12-17T14:41:41;42.88;;;21.00;;
61091;SDS011;46975;51.898;11.444;2022-12-17T14:44:26;47.80;;;20.83;;
61091;SDS011;46975;51.898;11.444;2022-12-17T14:47:05;56.20;;;23.20;;
61091;SDS011;46975;51.898;11.444;2022-12-17T14:55:20;48.20;;;23.83;;
61091;SDS011;46975;51.898;11.444;2022-12-17T14:57:46;46.63;;;20.60;;
61091;SDS011;46975;51.898;11.444;2022-12-17T15:00:12;50.17;;;22.48;;
61091;SDS011;46975;51.898;11.444;2022-12-17T15:02:39;57.17;;;22.52;;
61091;SDS011;46975;51.898;11.444;2022-12-17T15:07:37;38.75;;;20.25;;
61091;SDS011;46975;51.898;11.444;2022-12-17T15:10:08;41.65;;;19.95;;
61091;SDS011;46975;51.898;11.444;2022-12-17T15:12:35;43.50;;;20.45;;
61091;SDS011;46975;51.898;11.444;2022-12-17T15:15:01;45.95;;;21.95;;
61091;SDS011;46975;51.898;11.444;2022-12-17T15:17:27;44.33;;;21.02;;
61091;SDS011;46975;51.898;11.444;2022-12-17T15:19:53;46.72;;;21.95;;
61091;SDS011;46975;51.898;11.444;2022-12-17T15:22:19;35.40;;;19.90;;
61091;SDS011;46975;51.898;11.444;2022-12-17T15:24:46;43.63;;;20.25;;
61091;SDS011;46975;51.898;11.444;2022-12-17T15:27:12;38.95;;;19.55;;
61091;SDS011;46975;51.898;11.444;2022-12-17T15:29:40;36.63;;;19.70;;
61091;SDS011;46975;51.898;11.444;2022-12-17T15:32:20;36.50;;;20.17;;
61091;SDS011;46975;51.898;11.444;2022-12-17T15:34:47;32.88;;;17.52;;
61091;SDS011;46975;51.898;11.444;2022-12-17T15:37:14;33.67;;;18.55;;
61091;SDS011;46975;51.898;11.444;2022-12-17T15:39:40;33.00;;;18.20;;
61091;SDS011;46975;51.898;11.444;2022-12-17T15:42:07;36.75;;;17.55;;
61091;SDS011;46975;51.898;11.444;2022-12-17T15:44:52;35.78;;;17.00;;
61091;SDS011;46975;51.898;11.444;2022-12-17T15:47:17;34.90;;;16.83;;
61091;SDS011;46975;51.898;11.444;2022-12-17T15:49:46;40.63;;;18.92;;
61091;SDS011;46975;51.898;11.444;2022-12-17T15:52:11;33.13;;;16.58;;
61091;SDS011;46975;51.898;11.444;2022-12-17T15:54:43;36.22;;;20.35;;
61091;SDS011;46975;51.898;11.444;2022-12-17T15:57:09;37.08;;;21.00;;
61091;SDS011;46975;51.898;11.444;2022-12-17T15:59:35;36.42;;;18.17;;
61091;SDS011;46975;51.898;11.444;2022-12-17T16:02:00;30.52;;;17.23;;
61091;SDS011;46975;51.898;11.444;2022-12-17T16:04:26;43.85;;;21.38;;
61091;SDS011;46975;51.898;11.444;2022-12-17T16:06:52;41.13;;;18.38;;
61091;SDS011;46975;51.898;11.444;2022-12-17T16:09:18;45.13;;;21.45;;
61091;SDS011;46975;51.898;11.444;2022-12-17T16:11:48;42.22;;;19.80;;
61091;SDS011;46975;51.898;11.444;2022-12-17T16:14:16;44.30;;;20.65;;
61091;SDS011;46975;51.898;11.444;2022-12-17T16:16:42;43.70;;;20.63;;
61091;SDS011;46975;51.898;11.444;2022-12-17T16:19:08;47.60;;;21.17;;
61091;SDS011;46975;51.898;11.444;2022-12-17T16:21:34;43.30;;;20.20;;
61091;SDS011;46975;51.898;11.444;2022-12-17T16:24:00;41.13;;;20.65;;
61091;SDS011;46975;51.898;11.444;2022-12-17T16:26:25;45.60;;;20.52;;
61091;SDS011;46975;51.898;11.444;2022-12-17T16:28:51;42.38;;;20.55;;
61091;SDS011;46975;51.898;11.444;2022-12-17T16:31:17;39.75;;;20.63;;
61091;SDS011;46975;51.898;11.444;2022-12-17T16:33:43;46.53;;;20.25;;
61091;SDS011;46975;51.898;11.444;2022-12-17T16:36:12;42.55;;;17.85;;
61091;SDS011;46975;51.898;11.444;2022-12-17T16:38:43;42.72;;;18.83;;
61091;SDS011;46975;51.898;11.444;2022-12-17T16:41:10;43.90;;;19.73;;
61091;SDS011;46975;51.898;11.444;2022-12-17T16:43:37;42.60;;;20.02;;
61091;SDS011;46975;51.898;11.444;2022-12-17T16:46:03;46.08;;;20.45;;
61091;SDS011;46975;51.898;11.444;2022-12-17T16:48:29;41.78;;;19.90;;
61091;SDS011;46975;51.898;11.444;2022-12-17T16:51:01;41.17;;;20.92;;
61091;SDS011;46975;51.898;11.444;2022-12-17T16:53:43;43.08;;;19.63;;
61091;SDS011;46975;51.898;11.444;2022-12-17T16:56:15;37.13;;;19.15;;
61091;SDS011;46975;51.898;11.444;2022-12-17T16:58:43;42.13;;;21.23;;
61091;SDS011;46975;51.898;11.444;2022-12-17T17:01:09;37.35;;;17.60;;
61091;SDS011;46975;51.898;11.444;2022-12-17T17:03:39;41.97;;;19.15;;